Aeroporto :
LOGIN :

Iscrizione | Disclaimer

   EN    FR    IT 

 










Sommario :    VFR   VFR Marginale   IFR   IFR Intensivo   IFR Molto Intensivo
Visibilità : 
Base nubi : 
>= 8 km
>= 3000ft
5 / 8 km
1000 / 3000 ft
1500m / 5 km
500 / 1000 ft
800 / 1500m
200 / 500 ft
< 800m
< 200 ft
Simboli :   Temporali  Nebbia  Neve Forte  Precipitazioni Forti  Vento > 20 kt
SIGMETs :   Varie  Temporali  Ghiacco  Turbolenza  Onda orograficha  Ceneri Vulcaniche






- Altitudine del aeroporto : 375 ft
- Codice IATA : MST


EHBK - Maastricht Aachen

ULTIMO METAR :
  • 140155Z AUTO 19004KT 9999 NSC 19/16 Q1012

METARs OBSOLETI :
  • 140125Z AUTO 23004KT 210V300 9999 NCD 20/16 Q1012
  • 140055Z AUTO 20004KT 9999 NCD 20/16 Q1012
  • 140025Z AUTO 20006KT 9999 NCD 21/17 Q1013
  • 132355Z AUTO 20004KT 9999 NCD 21/17 Q1013

TAF TAF EHBK
Valido dal 14 a 00 ore il 15 a 06 ore UTC


132312Z 1400/1506 22006KT CAVOK
PROB30
TEMPO 1400/1412 6000 SHRA TSRA FEW070CB
PROB40
TEMPO 1412/1422 VRB15G25KT 3000 TSRA SCT040CB
BECMG 1422/1424 6000 BKN012
PROB40
TEMPO 1422/1506 4000 SHRA SCT020CB
PROB40 1423/1506 4000 BR BKN008



MetMap, La meteo Aeronautica in un colpo d'occhio ! - Copyright ORBIFLY Dicembre 2007 - Disclaimer

ORBIFLY MET'MAP TEAM :

Programmazione e sviluppo : Alexandra Zaïnal
Concezione : Baudouin d'Aumeries
Aiuto per la programmazione : Marc-Olivier Méhu
Supporto tecnico e logistico : Manuel Goepfert
Aiuto per la traduzione : Arnaldo La Scala

Contatto : metmap@orbifly.com




FONTI E CREDITI :

   NOAA